createdAt,value
2019-05-06T00:00:05.641Z,1.77
2019-05-06T00:02:37.003Z,1.03
2019-05-06T00:05:07.350Z,1.37
2019-05-06T00:07:37.129Z,1.27
2019-05-06T00:10:08.306Z,1.10
2019-05-06T00:12:37.955Z,1.80
2019-05-06T00:15:07.764Z,0.70
2019-05-06T00:17:37.462Z,1.27
2019-05-06T00:20:07.289Z,0.97
2019-05-06T00:22:36.970Z,1.40
2019-05-06T00:25:11.733Z,1.43
2019-05-06T00:28:00.103Z,1.20
2019-05-06T00:30:31.063Z,1.70
2019-05-06T00:33:00.889Z,0.90
2019-05-06T00:35:30.571Z,1.43
2019-05-06T00:38:00.237Z,1.23
2019-05-06T00:40:34.427Z,0.63
2019-05-06T00:43:05.909Z,2.10
2019-05-06T00:45:35.701Z,1.03
2019-05-06T00:48:05.460Z,1.13
2019-05-06T00:50:35.210Z,0.50
2019-05-06T00:53:06.998Z,0.83
2019-05-06T00:55:36.704Z,1.50
2019-05-06T00:58:06.496Z,0.90
2019-05-06T01:00:38.519Z,0.60
2019-05-06T01:03:08.204Z,1.53
2019-05-06T01:05:37.963Z,1.40
2019-05-06T01:08:07.743Z,0.97
2019-05-06T01:10:37.493Z,0.97
2019-05-06T01:13:20.347Z,1.27
2019-05-06T01:15:50.023Z,1.57
2019-05-06T01:18:19.839Z,1.93
2019-05-06T01:20:51.174Z,1.10
2019-05-06T01:23:23.465Z,1.53
2019-05-06T01:25:54.566Z,1.17
2019-05-06T01:28:24.558Z,1.17
2019-05-06T01:30:54.151Z,2.30
2019-05-06T01:33:24.221Z,1.00
2019-05-06T01:35:54.262Z,0.90
2019-05-06T01:38:29.360Z,1.03
2019-05-06T01:41:27.535Z,1.23
2019-05-06T01:43:57.275Z,1.50
2019-05-06T01:46:27.027Z,1.13
2019-05-06T01:48:56.898Z,1.20
2019-05-06T01:51:26.564Z,1.53
2019-05-06T01:53:56.199Z,1.43
2019-05-06T01:56:25.860Z,1.50
2019-05-06T01:58:55.508Z,1.40
2019-05-06T02:01:25.291Z,1.83
2019-05-06T02:03:54.914Z,1.23
2019-05-06T02:06:25.105Z,1.13
2019-05-06T02:08:54.996Z,1.90
2019-05-06T02:11:25.022Z,1.20
2019-05-06T02:13:54.688Z,1.40
2019-05-06T02:16:24.473Z,1.20
2019-05-06T02:18:54.197Z,1.63
2019-05-06T02:21:43.854Z,1.50
2019-05-06T02:24:19.454Z,1.77
2019-05-06T02:26:49.152Z,1.60
2019-05-06T02:29:20.985Z,1.87
2019-05-06T02:32:21.019Z,2.17
2019-05-06T02:34:55.969Z,3.10
2019-05-06T02:37:31.315Z,1.17
2019-05-06T02:40:03.994Z,1.60
2019-05-06T02:42:33.751Z,2.13
2019-05-06T02:45:04.204Z,1.63
2019-05-06T02:47:53.544Z,1.70
2019-05-06T02:50:24.041Z,1.07
2019-05-06T02:52:53.922Z,2.03
2019-05-06T02:55:24.609Z,1.87
2019-05-06T02:57:54.286Z,1.93
2019-05-06T03:00:24.053Z,1.97
2019-05-06T03:02:54.285Z,1.70
2019-05-06T03:05:24.186Z,0.40
2019-05-06T03:07:57.104Z,1.87
2019-05-06T03:10:25.182Z,1.00
2019-05-06T03:12:54.866Z,2.87
2019-05-06T03:15:24.527Z,2.23
2019-05-06T03:17:55.468Z,2.50
2019-05-06T03:21:03.955Z,1.90
2019-05-06T03:23:37.116Z,2.60
2019-05-06T03:26:07.118Z,2.73
2019-05-06T03:28:37.007Z,1.40
2019-05-06T03:31:08.161Z,1.87
2019-05-06T03:33:54.971Z,1.63
2019-05-06T03:36:18.451Z,2.50
2019-05-06T03:38:43.226Z,2.67
2019-05-06T03:41:14.087Z,2.40
2019-05-06T03:43:44.853Z,1.50
2019-05-06T03:46:28.070Z,1.93
2019-05-06T03:49:03.604Z,2.03
2019-05-06T03:51:34.245Z,1.80
2019-05-06T03:54:04.576Z,2.03
2019-05-06T03:56:36.682Z,2.03
2019-05-06T03:59:08.218Z,1.53
2019-05-06T04:01:38.275Z,1.40
2019-05-06T04:04:07.956Z,2.13
2019-05-06T04:06:38.059Z,1.23
2019-05-06T04:09:07.832Z,2.23
2019-05-06T04:11:38.901Z,1.33
2019-05-06T04:14:13.693Z,1.20
2019-05-06T04:16:53.131Z,0.60
2019-05-06T04:19:43.703Z,1.50
2019-05-06T04:22:27.930Z,0.57
2019-05-06T04:25:23.351Z,1.43
2019-05-06T04:27:55.272Z,1.07
2019-05-06T04:30:25.290Z,0.37
2019-05-06T04:32:55.295Z,1.27
2019-05-06T04:35:25.051Z,1.80
2019-05-06T04:37:54.772Z,1.27
2019-05-06T04:40:24.522Z,1.73
2019-05-06T04:42:55.248Z,1.27
2019-05-06T04:45:24.919Z,2.23
2019-05-06T04:47:54.577Z,1.80
2019-05-06T04:50:24.529Z,2.07
2019-05-06T04:53:04.731Z,1.73
2019-05-06T04:55:35.207Z,2.73
2019-05-06T04:58:06.384Z,2.10
2019-05-06T05:00:36.555Z,2.10
2019-05-06T05:03:07.554Z,2.23
2019-05-06T05:05:37.385Z,2.50
2019-05-06T05:08:07.052Z,2.60
2019-05-06T05:10:46.693Z,2.47
2019-05-06T05:13:37.997Z,3.13
2019-05-06T05:16:22.127Z,3.13
2019-05-06T05:18:58.791Z,3.13
2019-05-06T05:21:28.553Z,2.87
2019-05-06T05:23:58.397Z,2.97
2019-05-06T05:26:28.837Z,2.93
2019-05-06T05:28:58.503Z,2.67
2019-05-06T05:31:28.341Z,3.20
2019-05-06T05:33:58.155Z,3.40
2019-05-06T05:36:28.005Z,3.33
2019-05-06T05:38:57.745Z,3.17
2019-05-06T05:41:27.799Z,3.93
2019-05-06T05:44:04.769Z,2.23
2019-05-06T05:46:34.494Z,2.67
2019-05-06T05:49:42.440Z,2.83
2019-05-06T05:52:22.534Z,2.13
2019-05-06T05:55:07.098Z,2.97
2019-05-06T05:57:38.476Z,3.47
2019-05-06T06:00:08.898Z,3.30
2019-05-06T06:02:38.636Z,3.30
2019-05-06T06:05:08.541Z,2.60
2019-05-06T06:07:38.548Z,3.37
2019-05-06T06:10:36.608Z,2.83
2019-05-06T06:13:06.422Z,3.43
2019-05-06T06:15:47.254Z,3.50
2019-05-06T06:18:24.706Z,3.73
2019-05-06T06:21:17.318Z,3.30
2019-05-06T06:23:38.049Z,2.07
2019-05-06T06:26:07.751Z,3.87
2019-05-06T06:28:37.688Z,3.97
2019-05-06T06:31:33.299Z,2.63
2019-05-06T06:34:09.423Z,3.60
2019-05-06T06:37:07.040Z,3.77
2019-05-06T06:39:42.613Z,4.00
2019-05-06T06:42:12.763Z,4.27
2019-05-06T06:44:42.999Z,3.83
2019-05-06T06:47:13.111Z,2.87
2019-05-06T06:49:44.143Z,2.40
2019-05-06T06:52:14.978Z,3.40
2019-05-06T06:54:45.045Z,3.53
2019-05-06T06:57:27.599Z,3.40
2019-05-06T07:00:04.097Z,2.97
2019-05-06T07:02:43.250Z,3.40
2019-05-06T07:05:28.118Z,3.33
2019-05-06T07:07:55.300Z,2.87
2019-05-06T07:10:43.237Z,2.90
2019-05-06T07:13:18.300Z,3.30
2019-05-06T07:15:47.955Z,3.03
2019-05-06T07:18:17.631Z,3.67
2019-05-06T07:21:05.364Z,2.70
2019-05-06T07:23:35.599Z,2.57
2019-05-06T07:26:05.456Z,2.70
2019-05-06T07:28:35.125Z,3.37
2019-05-06T07:31:20.856Z,3.40
2019-05-06T07:33:36.405Z,1.83
2019-05-06T07:36:06.164Z,3.10
2019-05-06T07:38:35.822Z,2.20
2019-05-06T07:41:14.470Z,3.03
2019-05-06T07:44:04.509Z,2.27
2019-05-06T07:46:48.226Z,2.60
2019-05-06T07:49:17.991Z,3.10
2019-05-06T07:51:47.775Z,2.13
2019-05-06T07:54:17.464Z,2.73
2019-05-06T07:56:48.006Z,2.37
2019-05-06T07:59:23.583Z,2.97
2019-05-06T08:01:54.196Z,2.37
2019-05-06T08:04:24.143Z,2.73
2019-05-06T08:06:53.811Z,2.30
2019-05-06T08:09:23.559Z,2.50
2019-05-06T08:11:53.234Z,2.13
2019-05-06T08:14:43.178Z,1.67
2019-05-06T08:17:33.054Z,2.83
2019-05-06T08:20:02.906Z,2.50
2019-05-06T08:22:56.509Z,2.33
2019-05-06T08:25:25.681Z,1.90
2019-05-06T08:27:55.364Z,1.83
2019-05-06T08:30:25.113Z,2.57
2019-05-06T08:32:54.767Z,2.60
2019-05-06T08:35:24.494Z,2.53
2019-05-06T08:37:54.166Z,2.40
2019-05-06T08:40:26.469Z,2.27
2019-05-06T08:42:55.242Z,1.93
2019-05-06T08:45:24.980Z,1.90
2019-05-06T08:47:54.642Z,2.53
2019-05-06T08:50:46.192Z,2.37
2019-05-06T08:53:46.858Z,2.40
2019-05-06T08:56:19.358Z,2.00
2019-05-06T08:58:49.291Z,1.73
2019-05-06T09:01:29.852Z,1.40
2019-05-06T09:04:11.423Z,1.90
2019-05-06T09:06:34.187Z,1.43
2019-05-06T09:09:02.599Z,1.30
2019-05-06T09:11:33.937Z,1.27
2019-05-06T09:14:03.670Z,1.87
2019-05-06T09:16:33.450Z,1.63
2019-05-06T09:19:04.696Z,1.33
2019-05-06T09:21:35.574Z,2.00
2019-05-06T09:24:05.748Z,2.10
2019-05-06T09:26:43.093Z,1.63
2019-05-06T09:29:17.404Z,1.50
2019-05-06T09:31:52.064Z,1.57
2019-05-06T09:34:29.715Z,2.10
2019-05-06T09:37:13.409Z,1.70
2019-05-06T09:39:47.752Z,1.90
2019-05-06T09:42:17.840Z,2.00
2019-05-06T09:44:50.409Z,1.43
2019-05-06T09:47:42.428Z,1.97
2019-05-06T09:50:15.588Z,1.20
2019-05-06T09:52:45.325Z,1.90
2019-05-06T09:55:36.831Z,2.00
2019-05-06T09:58:07.642Z,2.03
2019-05-06T10:00:42.932Z,1.87
2019-05-06T10:03:12.923Z,1.47
2019-05-06T10:05:42.709Z,1.20
2019-05-06T10:08:12.671Z,1.43
2019-05-06T10:10:56.226Z,1.53
2019-05-06T10:13:14.723Z,1.63
2019-05-06T10:15:44.547Z,1.53
2019-05-06T10:18:15.457Z,1.73
2019-05-06T10:20:46.191Z,1.50
2019-05-06T10:23:16.213Z,1.40
2019-05-06T10:25:46.036Z,1.57
2019-05-06T10:28:36.341Z,1.40
2019-05-06T10:31:08.637Z,1.70
2019-05-06T10:33:57.347Z,1.60
2019-05-06T10:36:32.562Z,2.00
2019-05-06T10:39:07.407Z,1.37
2019-05-06T10:41:42.231Z,1.20
2019-05-06T10:44:36.154Z,1.57
2019-05-06T10:47:05.910Z,1.10
2019-05-06T10:49:35.574Z,1.53
2019-05-06T10:52:17.434Z,1.53
2019-05-06T10:54:47.090Z,1.67
2019-05-06T10:57:27.029Z,1.57
2019-05-06T10:59:56.773Z,0.83
2019-05-06T11:02:43.928Z,1.23
2019-05-06T11:05:14.457Z,1.77
2019-05-06T11:07:44.191Z,1.07
2019-05-06T11:10:24.294Z,1.60
2019-05-06T11:12:45.577Z,1.00
2019-05-06T11:15:15.906Z,1.17
2019-05-06T11:17:45.684Z,1.50
2019-05-06T11:20:15.424Z,1.80
2019-05-06T11:22:45.102Z,1.47
2019-05-06T11:25:14.951Z,1.27
2019-05-06T11:27:45.310Z,1.80
2019-05-06T11:30:24.814Z,1.67
2019-05-06T11:33:05.985Z,1.50
2019-05-06T11:36:09.734Z,1.90
2019-05-06T11:38:39.430Z,1.00
2019-05-06T11:44:58.951Z,1.20
2019-05-06T11:47:28.644Z,1.67
2019-05-06T11:49:58.870Z,1.50
2019-05-06T11:52:28.557Z,1.90
2019-05-06T11:54:59.052Z,1.83
2019-05-06T11:57:28.748Z,1.60
2019-05-06T11:59:58.421Z,1.40
2019-05-06T12:02:28.767Z,1.70
2019-05-06T12:04:58.429Z,1.80
2019-05-06T12:07:28.177Z,1.50
2019-05-06T12:09:57.849Z,1.33
2019-05-06T12:12:27.529Z,1.60
2019-05-06T12:14:57.207Z,1.50
2019-05-06T12:17:26.874Z,1.97
2019-05-06T12:19:56.564Z,1.50
2019-05-06T12:22:35.653Z,1.70
2019-05-06T12:25:11.425Z,1.57
2019-05-06T12:27:44.547Z,1.60
2019-05-06T12:30:23.060Z,1.60
2019-05-06T12:33:13.094Z,1.43
2019-05-06T12:35:47.025Z,1.60
2019-05-06T12:38:27.432Z,1.63
2019-05-06T12:40:54.072Z,1.60
2019-05-06T12:43:46.406Z,1.87
2019-05-06T12:46:23.095Z,1.73
2019-05-06T12:48:52.795Z,1.50
2019-05-06T12:51:22.803Z,1.40
2019-05-06T12:53:53.066Z,1.13
2019-05-06T12:56:22.870Z,1.60
2019-05-06T12:58:52.706Z,1.50
2019-05-06T13:01:22.524Z,1.40
2019-05-06T13:03:52.675Z,0.70
2019-05-06T13:06:26.407Z,1.63
2019-05-06T13:09:01.309Z,1.60
2019-05-06T13:11:25.477Z,1.53
2019-05-06T13:14:00.411Z,1.70
2019-05-06T13:16:26.755Z,1.60
2019-05-06T13:18:56.416Z,1.73
2019-05-06T13:21:26.633Z,1.70
2019-05-06T13:24:02.447Z,1.40
2019-05-06T13:26:32.674Z,1.70
2019-05-06T13:29:08.015Z,1.40
2019-05-06T13:31:37.907Z,1.33
2019-05-06T13:34:12.211Z,1.03
2019-05-06T13:36:42.841Z,1.27
2019-05-06T13:39:14.990Z,1.20
2019-05-06T13:41:45.579Z,1.87
2019-05-06T13:44:58.460Z,2.57
2019-05-06T13:47:45.626Z,1.90
2019-05-06T13:50:29.978Z,2.90
2019-05-06T13:53:09.128Z,2.20
2019-05-06T13:55:35.633Z,1.73
2019-05-06T13:58:05.672Z,2.00
2019-05-06T14:00:36.490Z,2.20
2019-05-06T14:03:06.399Z,2.77
2019-05-06T14:05:36.073Z,2.40
2019-05-06T14:08:05.727Z,2.53
2019-05-06T14:10:35.414Z,3.07
2019-05-06T14:13:05.227Z,2.43
2019-05-06T14:15:34.936Z,2.50
2019-05-06T14:18:04.678Z,2.30
2019-05-06T14:20:34.355Z,2.10
2019-05-06T14:23:04.090Z,1.97
2019-05-06T14:25:52.868Z,2.37
2019-05-06T14:28:28.361Z,2.70
2019-05-06T14:31:04.455Z,2.00
2019-05-06T14:33:34.118Z,2.67
2019-05-06T14:36:04.393Z,3.03
2019-05-06T14:38:34.049Z,2.03
2019-05-06T14:41:13.129Z,2.60
2019-05-06T14:43:43.017Z,2.30
2019-05-06T14:47:07.072Z,2.30
2019-05-06T14:49:36.721Z,2.30
2019-05-06T14:52:06.389Z,2.47
2019-05-06T14:58:04.557Z,2.20
2019-05-06T15:00:34.279Z,2.37
2019-05-06T15:03:04.023Z,1.80
2019-05-06T15:05:36.190Z,1.73
2019-05-06T15:08:05.216Z,1.73
2019-05-06T15:10:34.925Z,1.83
2019-05-06T15:13:04.695Z,2.10
2019-05-06T15:15:34.423Z,1.20
2019-05-06T15:18:04.092Z,2.10
2019-05-06T15:20:34.295Z,2.47
2019-05-06T15:23:04.568Z,1.43
2019-05-06T15:25:34.483Z,1.90
2019-05-06T15:28:04.200Z,1.50
2019-05-06T15:30:43.539Z,0.90
2019-05-06T15:33:14.693Z,0.60
2019-05-06T15:36:02.229Z,0.60
2019-05-06T15:38:31.060Z,0.70
2019-05-06T15:41:00.841Z,0.60
2019-05-06T15:43:33.214Z,0.50
2019-05-06T15:46:03.308Z,0.90
2019-05-06T15:48:33.175Z,0.90
2019-05-06T15:51:02.859Z,1.10
2019-05-06T15:53:33.202Z,1.23
2019-05-06T15:56:02.898Z,1.10
2019-05-06T15:58:32.930Z,1.10
2019-05-06T16:01:03.335Z,0.67
2019-05-06T16:03:33.557Z,1.03
2019-05-06T16:06:03.376Z,1.20
2019-05-06T16:08:33.063Z,0.80
2019-05-06T16:11:03.019Z,1.03
2019-05-06T16:13:32.745Z,1.07
2019-05-06T16:16:03.046Z,0.50
2019-05-06T16:18:37.042Z,0.73
2019-05-06T16:21:06.686Z,0.90
2019-05-06T16:23:42.350Z,0.90
2019-05-06T16:26:13.199Z,0.93
2019-05-06T16:28:45.951Z,0.87
2019-05-06T16:31:15.687Z,1.10
2019-05-06T16:33:45.455Z,0.83
2019-05-06T16:36:15.125Z,0.73
2019-05-06T16:38:46.323Z,0.90
2019-05-06T16:41:17.565Z,1.00
2019-05-06T16:43:47.248Z,0.90
2019-05-06T16:46:16.992Z,1.00
2019-05-06T16:48:46.790Z,1.70
2019-05-06T16:51:16.526Z,0.80
2019-05-06T16:53:46.337Z,0.80
2019-05-06T16:56:36.269Z,0.80
2019-05-06T16:59:06.042Z,1.27
2019-05-06T17:01:37.854Z,0.90
2019-05-06T17:04:18.072Z,0.87
2019-05-06T17:06:47.753Z,0.83
2019-05-06T17:09:23.726Z,1.00
2019-05-06T17:11:48.773Z,1.37
2019-05-06T17:14:18.499Z,1.10
2019-05-06T17:16:48.237Z,0.60
2019-05-06T17:19:18.950Z,1.10
2019-05-06T17:21:48.707Z,0.87
2019-05-06T17:24:19.389Z,1.30
2019-05-06T17:26:49.047Z,1.57
2019-05-06T17:29:24.740Z,1.57
2019-05-06T17:32:06.993Z,1.30
2019-05-06T17:34:39.540Z,0.97
2019-05-06T17:37:28.323Z,1.13
2019-05-06T17:40:08.161Z,0.80
2019-05-06T17:42:29.415Z,1.37
2019-05-06T17:44:59.050Z,1.53
2019-05-06T17:47:35.306Z,1.43
2019-05-06T17:50:05.987Z,1.37
2019-05-06T17:52:35.632Z,1.30
2019-05-06T17:55:05.711Z,1.00
2019-05-06T17:57:35.388Z,1.17
2019-05-06T18:00:32.398Z,1.77
2019-05-06T18:03:05.029Z,1.20
2019-05-06T18:05:34.703Z,1.10
2019-05-06T18:08:07.522Z,0.90
2019-05-06T18:10:37.521Z,1.20
2019-05-06T18:13:07.495Z,1.67
2019-05-06T18:15:38.200Z,1.00
2019-05-06T18:18:08.095Z,1.77
2019-05-06T18:20:56.102Z,1.70
2019-05-06T18:23:25.770Z,1.83
2019-05-06T18:25:55.439Z,1.50
2019-05-06T18:28:25.820Z,1.40
2019-05-06T18:30:55.531Z,1.27
2019-05-06T18:33:25.348Z,1.13
2019-05-06T18:35:55.122Z,1.90
2019-05-06T18:38:24.811Z,1.40
2019-05-06T18:40:55.391Z,1.10
2019-05-06T18:43:25.153Z,1.20
2019-05-06T18:45:54.793Z,1.20
2019-05-06T18:48:27.790Z,1.23
2019-05-06T18:50:55.903Z,1.40
2019-05-06T18:53:25.620Z,1.10
2019-05-06T18:56:44.689Z,1.00
2019-05-06T18:59:17.187Z,1.00
2019-05-06T19:01:46.991Z,1.20
2019-05-06T19:04:56.838Z,1.20
2019-05-06T19:07:26.595Z,1.00
2019-05-06T19:10:05.917Z,1.60
2019-05-06T19:13:01.980Z,1.10
2019-05-06T19:15:42.299Z,0.90
2019-05-06T19:18:12.940Z,1.30
2019-05-06T19:20:44.488Z,1.30
2019-05-06T19:23:14.521Z,0.83
2019-05-06T19:25:44.278Z,1.13
2019-05-06T19:28:14.282Z,1.10
2019-05-06T19:30:44.384Z,1.57
2019-05-06T19:33:14.053Z,1.10
2019-05-06T19:35:43.813Z,1.57
2019-05-06T19:38:13.690Z,0.77
2019-05-06T19:40:43.571Z,0.73
2019-05-06T19:43:13.405Z,1.47
2019-05-06T19:45:43.188Z,1.60
2019-05-06T19:48:13.476Z,0.40
2019-05-06T19:50:43.739Z,1.00
2019-05-06T19:53:13.402Z,1.37
2019-05-06T19:55:46.632Z,0.80
2019-05-06T19:58:14.716Z,1.63
2019-05-06T20:00:45.833Z,1.47
2019-05-06T20:03:16.161Z,1.40
2019-05-06T20:06:10.335Z,1.37
2019-05-06T20:08:52.894Z,0.77
2019-05-06T20:11:33.161Z,1.53
2019-05-06T20:14:03.139Z,1.20
2019-05-06T20:16:33.309Z,1.80
2019-05-06T20:19:03.047Z,1.33
2019-05-06T20:21:32.986Z,1.07
2019-05-06T20:24:02.740Z,1.50
2019-05-06T20:26:32.582Z,1.30
2019-05-06T20:29:03.534Z,1.53
2019-05-06T20:31:33.216Z,1.43
2019-05-06T20:34:03.033Z,1.60
2019-05-06T20:36:34.083Z,1.33
2019-05-06T20:39:06.549Z,0.90
2019-05-06T20:41:36.864Z,1.10
2019-05-06T20:44:06.637Z,1.50
2019-05-06T20:46:36.482Z,1.63
2019-05-06T20:49:06.154Z,1.37
2019-05-06T20:51:36.733Z,1.90
2019-05-06T20:54:42.656Z,1.70
2019-05-06T20:57:14.107Z,1.10
2019-05-06T20:59:44.074Z,1.80
2019-05-06T21:02:13.944Z,1.83
2019-05-06T21:04:43.647Z,1.03
2019-05-06T21:07:13.332Z,1.73
2019-05-06T21:09:43.350Z,1.50
2019-05-06T21:12:13.413Z,1.23
2019-05-06T21:14:45.748Z,1.17
2019-05-06T21:17:16.038Z,1.10
2019-05-06T21:19:45.794Z,1.10
2019-05-06T21:22:15.530Z,1.90
2019-05-06T21:24:45.256Z,1.50
2019-05-06T21:27:29.851Z,1.00
2019-05-06T21:30:02.516Z,1.63
2019-05-06T21:32:35.885Z,1.47
2019-05-06T21:35:07.808Z,1.00
2019-05-06T21:37:37.485Z,1.23
2019-05-06T21:40:07.541Z,1.63
2019-05-06T21:42:37.298Z,1.43
2019-05-06T21:45:07.284Z,1.27
2019-05-06T21:47:36.987Z,0.97
2019-05-06T21:50:06.992Z,2.20
2019-05-06T21:52:39.742Z,1.53
2019-05-06T21:55:08.162Z,1.87
2019-05-06T21:57:37.913Z,2.17
2019-05-06T22:00:12.658Z,0.83
2019-05-06T22:02:44.951Z,1.10
2019-05-06T22:05:15.670Z,1.00
2019-05-06T22:07:45.371Z,0.90
2019-05-06T22:10:15.679Z,1.33
2019-05-06T22:12:45.369Z,1.43
2019-05-06T22:15:15.742Z,1.30
2019-05-06T22:17:45.406Z,1.30
2019-05-06T22:20:15.172Z,1.77
2019-05-06T22:22:44.877Z,1.17
2019-05-06T22:25:14.605Z,1.23
2019-05-06T22:27:44.593Z,1.13
2019-05-06T22:30:14.643Z,1.20
2019-05-06T22:32:46.943Z,1.60
2019-05-06T22:35:17.574Z,1.40
2019-05-06T22:37:48.221Z,1.03
2019-05-06T22:40:18.115Z,1.47
2019-05-06T22:42:47.799Z,1.80
2019-05-06T22:45:17.712Z,1.03
2019-05-06T22:47:47.541Z,1.57
2019-05-06T22:50:17.371Z,2.43
2019-05-06T22:52:47.093Z,1.17
2019-05-06T22:55:16.930Z,1.50
2019-05-06T22:57:46.605Z,1.10
2019-05-06T23:00:22.475Z,2.50
2019-05-06T23:02:56.873Z,1.20
2019-05-06T23:05:26.639Z,1.47
2019-05-06T23:07:56.446Z,2.03
2019-05-06T23:10:26.110Z,2.50
2019-05-06T23:12:55.850Z,1.00
2019-05-06T23:15:25.507Z,2.63
2019-05-06T23:18:08.151Z,2.00
2019-05-06T23:20:37.834Z,1.40
2019-05-06T23:23:07.490Z,1.13
2019-05-06T23:25:37.148Z,1.37
2019-05-06T23:28:06.838Z,1.00
2019-05-06T23:30:36.481Z,1.33
2019-05-06T23:33:06.148Z,1.63
2019-05-06T23:35:35.866Z,1.33
2019-05-06T23:38:43.020Z,2.20
2019-05-06T23:41:48.955Z,0.80
2019-05-06T23:44:54.852Z,0.90
2019-05-06T23:48:02.551Z,1.30
2019-05-06T23:51:08.749Z,1.73
2019-05-06T23:54:15.022Z,1.30
2019-05-06T23:56:44.363Z,1.70
2019-05-06T23:59:15.398Z,1.73
